sensor_id;sensor_type;location;lat;lon;timestamp;P1;durP1;ratioP1;P2;durP2;ratioP2
40757;SDS011;26462;47.384;19.218;2023-03-01T00:01:21;21.42;;;8.80;;
40757;SDS011;26462;47.384;19.218;2023-03-01T00:03:50;23.08;;;10.02;;
40757;SDS011;26462;47.384;19.218;2023-03-01T00:06:19;17.67;;;8.15;;
40757;SDS011;26462;47.384;19.218;2023-03-01T00:08:47;21.38;;;8.38;;
40757;SDS011;26462;47.384;19.218;2023-03-01T00:13:47;21.40;;;8.40;;
40757;SDS011;26462;47.384;19.218;2023-03-01T00:16:35;19.73;;;7.72;;
40757;SDS011;26462;47.384;19.218;2023-03-01T00:19:07;19.58;;;7.72;;
40757;SDS011;26462;47.384;19.218;2023-03-01T00:21:38;20.40;;;8.02;;
40757;SDS011;26462;47.384;19.218;2023-03-01T00:24:06;18.75;;;7.63;;
40757;SDS011;26462;47.384;19.218;2023-03-01T00:26:33;19.98;;;9.60;;
40757;SDS011;26462;47.384;19.218;2023-03-01T00:29:00;21.77;;;7.85;;
40757;SDS011;26462;47.384;19.218;2023-03-01T00:31:29;22.67;;;8.18;;
40757;SDS011;26462;47.384;19.218;2023-03-01T00:34:01;24.73;;;9.80;;
40757;SDS011;26462;47.384;19.218;2023-03-01T00:36:31;21.60;;;9.18;;
40757;SDS011;26462;47.384;19.218;2023-03-01T00:39:00;19.85;;;7.75;;
40757;SDS011;26462;47.384;19.218;2023-03-01T00:41:28;22.73;;;8.63;;
40757;SDS011;26462;47.384;19.218;2023-03-01T00:43:55;23.65;;;8.82;;
40757;SDS011;26462;47.384;19.218;2023-03-01T00:46:24;25.42;;;9.52;;
40757;SDS011;26462;47.384;19.218;2023-03-01T00:48:52;21.08;;;8.70;;
40757;SDS011;26462;47.384;19.218;2023-03-01T00:51:21;21.63;;;9.35;;
40757;SDS011;26462;47.384;19.218;2023-03-01T00:53:51;19.85;;;8.27;;
40757;SDS011;26462;47.384;19.218;2023-03-01T00:56:20;20.13;;;8.38;;
40757;SDS011;26462;47.384;19.218;2023-03-01T00:58:48;20.20;;;8.43;;
40757;SDS011;26462;47.384;19.218;2023-03-01T01:01:16;19.10;;;8.52;;
40757;SDS011;26462;47.384;19.218;2023-03-01T01:03:52;19.10;;;7.97;;
40757;SDS011;26462;47.384;19.218;2023-03-01T01:06:24;19.60;;;8.32;;
40757;SDS011;26462;47.384;19.218;2023-03-01T01:09:03;20.08;;;7.63;;
40757;SDS011;26462;47.384;19.218;2023-03-01T01:11:32;18.52;;;7.88;;
40757;SDS011;26462;47.384;19.218;2023-03-01T01:13:59;18.70;;;7.97;;
40757;SDS011;26462;47.384;19.218;2023-03-01T01:16:28;19.98;;;7.60;;
40757;SDS011;26462;47.384;19.218;2023-03-01T01:18:56;20.67;;;7.53;;
40757;SDS011;26462;47.384;19.218;2023-03-01T01:21:24;21.77;;;7.78;;
40757;SDS011;26462;47.384;19.218;2023-03-01T01:23:52;21.10;;;8.38;;
40757;SDS011;26462;47.384;19.218;2023-03-01T01:26:21;18.02;;;8.20;;
40757;SDS011;26462;47.384;19.218;2023-03-01T01:28:49;19.73;;;8.02;;
40757;SDS011;26462;47.384;19.218;2023-03-01T01:31:18;25.55;;;9.63;;
40757;SDS011;26462;47.384;19.218;2023-03-01T01:33:45;24.73;;;9.68;;
40757;SDS011;26462;47.384;19.218;2023-03-01T01:36:13;21.10;;;8.88;;
40757;SDS011;26462;47.384;19.218;2023-03-01T01:38:40;24.40;;;8.98;;
40757;SDS011;26462;47.384;19.218;2023-03-01T01:41:08;22.05;;;9.45;;
40757;SDS011;26462;47.384;19.218;2023-03-01T01:43:43;27.85;;;10.25;;
40757;SDS011;26462;47.384;19.218;2023-03-01T01:48:46;24.40;;;9.57;;
40757;SDS011;26462;47.384;19.218;2023-03-01T01:51:20;20.02;;;7.32;;
40757;SDS011;26462;47.384;19.218;2023-03-01T01:53:53;24.40;;;7.88;;
40757;SDS011;26462;47.384;19.218;2023-03-01T01:58:53;25.08;;;9.13;;
40757;SDS011;26462;47.384;19.218;2023-03-01T02:01:22;21.10;;;8.35;;
40757;SDS011;26462;47.384;19.218;2023-03-01T02:03:49;24.48;;;9.75;;
40757;SDS011;26462;47.384;19.218;2023-03-01T02:06:31;25.33;;;9.13;;
40757;SDS011;26462;47.384;19.218;2023-03-01T02:09:06;24.75;;;9.88;;
40757;SDS011;26462;47.384;19.218;2023-03-01T02:11:37;23.27;;;9.02;;
40757;SDS011;26462;47.384;19.218;2023-03-01T02:14:04;19.70;;;7.57;;
40757;SDS011;26462;47.384;19.218;2023-03-01T02:16:32;17.48;;;7.45;;
40757;SDS011;26462;47.384;19.218;2023-03-01T02:19:00;17.20;;;7.03;;
40757;SDS011;26462;47.384;19.218;2023-03-01T02:24:32;21.17;;;9.02;;
40757;SDS011;26462;47.384;19.218;2023-03-01T02:27:01;17.60;;;7.47;;
40757;SDS011;26462;47.384;19.218;2023-03-01T02:29:28;16.35;;;6.90;;
40757;SDS011;26462;47.384;19.218;2023-03-01T02:31:56;17.27;;;6.65;;
40757;SDS011;26462;47.384;19.218;2023-03-01T02:34:26;18.60;;;7.40;;
40757;SDS011;26462;47.384;19.218;2023-03-01T02:39:48;20.33;;;6.82;;
40757;SDS011;26462;47.384;19.218;2023-03-01T02:42:35;22.77;;;7.93;;
40757;SDS011;26462;47.384;19.218;2023-03-01T02:45:06;20.10;;;7.85;;
40757;SDS011;26462;47.384;19.218;2023-03-01T02:47:34;20.17;;;7.72;;
40757;SDS011;26462;47.384;19.218;2023-03-01T02:50:01;20.23;;;7.57;;
40757;SDS011;26462;47.384;19.218;2023-03-01T02:52:43;17.52;;;7.43;;
40757;SDS011;26462;47.384;19.218;2023-03-01T02:55:19;22.17;;;7.63;;
40757;SDS011;26462;47.384;19.218;2023-03-01T02:57:46;16.13;;;6.28;;
40757;SDS011;26462;47.384;19.218;2023-03-01T03:00:22;17.63;;;7.43;;
40757;SDS011;26462;47.384;19.218;2023-03-01T03:02:56;17.65;;;6.80;;
40757;SDS011;26462;47.384;19.218;2023-03-01T03:05:25;17.77;;;6.15;;
40757;SDS011;26462;47.384;19.218;2023-03-01T03:07:56;19.13;;;6.55;;
40757;SDS011;26462;47.384;19.218;2023-03-01T03:10:26;17.75;;;7.32;;
40757;SDS011;26462;47.384;19.218;2023-03-01T03:12:58;21.00;;;7.35;;
40757;SDS011;26462;47.384;19.218;2023-03-01T03:15:31;17.10;;;6.30;;
40757;SDS011;26462;47.384;19.218;2023-03-01T03:18:03;17.63;;;7.18;;
40757;SDS011;26462;47.384;19.218;2023-03-01T03:20:32;22.05;;;7.20;;
40757;SDS011;26462;47.384;19.218;2023-03-01T03:23:00;19.80;;;7.55;;
40757;SDS011;26462;47.384;19.218;2023-03-01T03:25:28;21.48;;;7.32;;
40757;SDS011;26462;47.384;19.218;2023-03-01T03:27:56;15.35;;;6.80;;
40757;SDS011;26462;47.384;19.218;2023-03-01T03:30:29;18.63;;;6.72;;
40757;SDS011;26462;47.384;19.218;2023-03-01T03:32:58;19.13;;;7.72;;
40757;SDS011;26462;47.384;19.218;2023-03-01T03:37:59;16.30;;;7.00;;
40757;SDS011;26462;47.384;19.218;2023-03-01T03:40:35;19.73;;;8.13;;
40757;SDS011;26462;47.384;19.218;2023-03-01T03:43:08;17.08;;;8.15;;
40757;SDS011;26462;47.384;19.218;2023-03-01T03:45:37;15.70;;;6.95;;
40757;SDS011;26462;47.384;19.218;2023-03-01T03:48:05;14.93;;;7.60;;
40757;SDS011;26462;47.384;19.218;2023-03-01T03:50:34;17.33;;;7.60;;
40757;SDS011;26462;47.384;19.218;2023-03-01T03:53:03;15.73;;;6.40;;
40757;SDS011;26462;47.384;19.218;2023-03-01T03:55:32;16.70;;;6.57;;
40757;SDS011;26462;47.384;19.218;2023-03-01T03:58:01;17.10;;;5.97;;
40757;SDS011;26462;47.384;19.218;2023-03-01T04:00:34;16.98;;;6.97;;
40757;SDS011;26462;47.384;19.218;2023-03-01T04:03:03;15.32;;;6.68;;
40757;SDS011;26462;47.384;19.218;2023-03-01T04:05:30;21.75;;;7.70;;
40757;SDS011;26462;47.384;19.218;2023-03-01T04:07:58;23.73;;;7.82;;
40757;SDS011;26462;47.384;19.218;2023-03-01T04:10:29;21.33;;;8.55;;
40757;SDS011;26462;47.384;19.218;2023-03-01T04:12:58;21.02;;;7.75;;
40757;SDS011;26462;47.384;19.218;2023-03-01T04:15:25;23.33;;;8.80;;
40757;SDS011;26462;47.384;19.218;2023-03-01T04:17:53;25.30;;;8.45;;
40757;SDS011;26462;47.384;19.218;2023-03-01T04:20:22;20.92;;;8.45;;
40757;SDS011;26462;47.384;19.218;2023-03-01T04:22:52;18.75;;;6.90;;
40757;SDS011;26462;47.384;19.218;2023-03-01T04:25:38;19.95;;;8.38;;
40757;SDS011;26462;47.384;19.218;2023-03-01T04:28:31;18.67;;;7.35;;
40757;SDS011;26462;47.384;19.218;2023-03-01T04:31:02;20.52;;;7.57;;
40757;SDS011;26462;47.384;19.218;2023-03-01T04:33:45;21.88;;;8.55;;
40757;SDS011;26462;47.384;19.218;2023-03-01T04:36:19;23.88;;;8.95;;
40757;SDS011;26462;47.384;19.218;2023-03-01T04:38:47;21.50;;;8.57;;
40757;SDS011;26462;47.384;19.218;2023-03-01T04:41:16;21.30;;;7.75;;
40757;SDS011;26462;47.384;19.218;2023-03-01T04:43:45;22.83;;;8.63;;
40757;SDS011;26462;47.384;19.218;2023-03-01T04:46:14;22.20;;;7.82;;
40757;SDS011;26462;47.384;19.218;2023-03-01T04:48:43;22.55;;;8.13;;
40757;SDS011;26462;47.384;19.218;2023-03-01T04:51:11;15.95;;;6.22;;
40757;SDS011;26462;47.384;19.218;2023-03-01T04:53:42;18.27;;;7.05;;
40757;SDS011;26462;47.384;19.218;2023-03-01T04:56:10;16.58;;;6.50;;
40757;SDS011;26462;47.384;19.218;2023-03-01T04:58:40;18.13;;;6.95;;
40757;SDS011;26462;47.384;19.218;2023-03-01T05:01:18;18.13;;;6.85;;
40757;SDS011;26462;47.384;19.218;2023-03-01T05:03:47;16.90;;;7.03;;
40757;SDS011;26462;47.384;19.218;2023-03-01T05:06:17;16.88;;;7.07;;
40757;SDS011;26462;47.384;19.218;2023-03-01T05:08:45;17.05;;;6.75;;
40757;SDS011;26462;47.384;19.218;2023-03-01T05:11:12;16.17;;;6.60;;
40757;SDS011;26462;47.384;19.218;2023-03-01T05:13:39;16.73;;;6.35;;
40757;SDS011;26462;47.384;19.218;2023-03-01T05:16:07;18.52;;;7.10;;
40757;SDS011;26462;47.384;19.218;2023-03-01T05:18:38;16.70;;;6.68;;
40757;SDS011;26462;47.384;19.218;2023-03-01T05:21:07;16.42;;;6.95;;
40757;SDS011;26462;47.384;19.218;2023-03-01T05:23:36;15.57;;;6.05;;
40757;SDS011;26462;47.384;19.218;2023-03-01T05:26:04;17.40;;;6.72;;
40757;SDS011;26462;47.384;19.218;2023-03-01T05:28:36;17.80;;;6.90;;
40757;SDS011;26462;47.384;19.218;2023-03-01T05:31:04;14.38;;;6.97;;
40757;SDS011;26462;47.384;19.218;2023-03-01T05:33:36;17.90;;;6.95;;
40757;SDS011;26462;47.384;19.218;2023-03-01T05:36:05;16.92;;;6.03;;
40757;SDS011;26462;47.384;19.218;2023-03-01T05:38:36;14.20;;;6.32;;
40757;SDS011;26462;47.384;19.218;2023-03-01T05:41:03;17.08;;;6.70;;
40757;SDS011;26462;47.384;19.218;2023-03-01T05:43:31;19.90;;;6.38;;
40757;SDS011;26462;47.384;19.218;2023-03-01T05:46:01;19.58;;;7.45;;
40757;SDS011;26462;47.384;19.218;2023-03-01T05:48:28;22.27;;;7.60;;
40757;SDS011;26462;47.384;19.218;2023-03-01T05:50:58;18.42;;;7.47;;
40757;SDS011;26462;47.384;19.218;2023-03-01T05:53:27;16.35;;;6.13;;
40757;SDS011;26462;47.384;19.218;2023-03-01T05:55:54;15.88;;;6.53;;
40757;SDS011;26462;47.384;19.218;2023-03-01T05:58:21;17.83;;;7.57;;
40757;SDS011;26462;47.384;19.218;2023-03-01T06:00:48;16.67;;;7.30;;
40757;SDS011;26462;47.384;19.218;2023-03-01T06:03:18;18.05;;;6.57;;
40757;SDS011;26462;47.384;19.218;2023-03-01T06:05:45;17.50;;;6.75;;
40757;SDS011;26462;47.384;19.218;2023-03-01T06:08:13;13.95;;;5.95;;
40757;SDS011;26462;47.384;19.218;2023-03-01T06:10:40;13.68;;;6.18;;
40757;SDS011;26462;47.384;19.218;2023-03-01T06:13:07;13.40;;;5.15;;
40757;SDS011;26462;47.384;19.218;2023-03-01T06:15:35;15.15;;;5.28;;
40757;SDS011;26462;47.384;19.218;2023-03-01T06:18:02;15.00;;;6.10;;
40757;SDS011;26462;47.384;19.218;2023-03-01T06:20:29;19.85;;;6.28;;
40757;SDS011;26462;47.384;19.218;2023-03-01T06:22:57;16.67;;;7.18;;
40757;SDS011;26462;47.384;19.218;2023-03-01T06:25:25;20.02;;;5.90;;
40757;SDS011;26462;47.384;19.218;2023-03-01T06:27:53;14.32;;;5.90;;
40757;SDS011;26462;47.384;19.218;2023-03-01T06:30:21;14.82;;;5.72;;
40757;SDS011;26462;47.384;19.218;2023-03-01T06:32:49;13.73;;;5.57;;
40757;SDS011;26462;47.384;19.218;2023-03-01T06:35:17;16.92;;;5.97;;
40757;SDS011;26462;47.384;19.218;2023-03-01T06:37:46;15.40;;;6.75;;
40757;SDS011;26462;47.384;19.218;2023-03-01T06:40:14;17.83;;;7.00;;
40757;SDS011;26462;47.384;19.218;2023-03-01T06:42:43;17.67;;;6.70;;
40757;SDS011;26462;47.384;19.218;2023-03-01T06:45:18;18.33;;;7.68;;
40757;SDS011;26462;47.384;19.218;2023-03-01T06:47:46;20.13;;;8.38;;
40757;SDS011;26462;47.384;19.218;2023-03-01T06:50:14;16.77;;;7.70;;
40757;SDS011;26462;47.384;19.218;2023-03-01T06:52:42;16.70;;;7.60;;
40757;SDS011;26462;47.384;19.218;2023-03-01T06:55:12;18.33;;;7.00;;
40757;SDS011;26462;47.384;19.218;2023-03-01T06:57:40;17.33;;;6.70;;
40757;SDS011;26462;47.384;19.218;2023-03-01T07:00:07;14.93;;;6.47;;
40757;SDS011;26462;47.384;19.218;2023-03-01T07:02:35;16.48;;;6.53;;
40757;SDS011;26462;47.384;19.218;2023-03-01T07:05:02;17.73;;;7.05;;
40757;SDS011;26462;47.384;19.218;2023-03-01T07:07:30;15.32;;;5.85;;
40757;SDS011;26462;47.384;19.218;2023-03-01T07:09:57;11.43;;;5.05;;
40757;SDS011;26462;47.384;19.218;2023-03-01T07:12:24;14.90;;;6.90;;
40757;SDS011;26462;47.384;19.218;2023-03-01T07:14:51;14.25;;;5.88;;
40757;SDS011;26462;47.384;19.218;2023-03-01T07:17:19;14.60;;;6.55;;
40757;SDS011;26462;47.384;19.218;2023-03-01T07:19:46;14.88;;;6.65;;
40757;SDS011;26462;47.384;19.218;2023-03-01T07:22:13;16.70;;;7.40;;
40757;SDS011;26462;47.384;19.218;2023-03-01T07:24:41;19.80;;;7.50;;
40757;SDS011;26462;47.384;19.218;2023-03-01T07:27:09;23.90;;;9.05;;
40757;SDS011;26462;47.384;19.218;2023-03-01T07:29:37;19.10;;;8.40;;
40757;SDS011;26462;47.384;19.218;2023-03-01T07:32:04;17.63;;;7.25;;
40757;SDS011;26462;47.384;19.218;2023-03-01T07:34:32;17.55;;;7.50;;
40757;SDS011;26462;47.384;19.218;2023-03-01T07:36:59;20.00;;;7.20;;
40757;SDS011;26462;47.384;19.218;2023-03-01T07:39:27;16.90;;;6.72;;
40757;SDS011;26462;47.384;19.218;2023-03-01T07:41:54;14.80;;;6.53;;
40757;SDS011;26462;47.384;19.218;2023-03-01T07:44:21;16.00;;;6.78;;
40757;SDS011;26462;47.384;19.218;2023-03-01T07:46:49;13.63;;;5.75;;
40757;SDS011;26462;47.384;19.218;2023-03-01T07:49:17;14.27;;;6.53;;
40757;SDS011;26462;47.384;19.218;2023-03-01T07:51:45;16.00;;;7.03;;
40757;SDS011;26462;47.384;19.218;2023-03-01T07:54:19;13.95;;;6.18;;
40757;SDS011;26462;47.384;19.218;2023-03-01T07:56:51;10.40;;;4.32;;
40757;SDS011;26462;47.384;19.218;2023-03-01T08:11:22;10.90;;;4.97;;
40757;SDS011;26462;47.384;19.218;2023-03-01T08:23:58;10.88;;;4.35;;
40757;SDS011;26462;47.384;19.218;2023-03-01T11:10:11;10.77;;;4.00;;
40757;SDS011;26462;47.384;19.218;2023-03-01T11:13:14;11.48;;;5.03;;
40757;SDS011;26462;47.384;19.218;2023-03-01T14:09:00;8.98;;;3.65;;
40757;SDS011;26462;47.384;19.218;2023-03-01T17:53:47;45.72;;;18.33;;
40757;SDS011;26462;47.384;19.218;2023-03-01T17:56:18;41.00;;;18.60;;
40757;SDS011;26462;47.384;19.218;2023-03-01T17:58:46;58.17;;;21.90;;
40757;SDS011;26462;47.384;19.218;2023-03-01T18:01:17;76.53;;;26.40;;
40757;SDS011;26462;47.384;19.218;2023-03-01T18:03:52;108.35;;;33.47;;
40757;SDS011;26462;47.384;19.218;2023-03-01T18:06:25;87.82;;;30.65;;
40757;SDS011;26462;47.384;19.218;2023-03-01T18:08:54;70.80;;;25.63;;
40757;SDS011;26462;47.384;19.218;2023-03-01T18:11:23;88.18;;;32.83;;
40757;SDS011;26462;47.384;19.218;2023-03-01T18:13:52;85.80;;;35.50;;
40757;SDS011;26462;47.384;19.218;2023-03-01T18:16:21;89.25;;;36.67;;
40757;SDS011;26462;47.384;19.218;2023-03-01T18:18:52;81.35;;;34.72;;
40757;SDS011;26462;47.384;19.218;2023-03-01T18:21:21;63.00;;;30.10;;
40757;SDS011;26462;47.384;19.218;2023-03-01T18:23:51;64.47;;;29.00;;
40757;SDS011;26462;47.384;19.218;2023-03-01T18:26:23;54.38;;;23.48;;
40757;SDS011;26462;47.384;19.218;2023-03-01T18:28:51;72.65;;;30.83;;
40757;SDS011;26462;47.384;19.218;2023-03-01T18:31:27;64.00;;;26.83;;
40757;SDS011;26462;47.384;19.218;2023-03-01T18:33:59;49.55;;;22.52;;
40757;SDS011;26462;47.384;19.218;2023-03-01T18:36:32;47.70;;;19.65;;
40757;SDS011;26462;47.384;19.218;2023-03-01T18:39:07;43.97;;;17.35;;
40757;SDS011;26462;47.384;19.218;2023-03-01T18:41:39;43.97;;;16.73;;
40757;SDS011;26462;47.384;19.218;2023-03-01T18:44:08;35.38;;;15.90;;
40757;SDS011;26462;47.384;19.218;2023-03-01T18:46:37;31.00;;;14.15;;
40757;SDS011;26462;47.384;19.218;2023-03-01T18:49:07;36.25;;;16.55;;
40757;SDS011;26462;47.384;19.218;2023-03-01T18:51:37;48.83;;;18.70;;
40757;SDS011;26462;47.384;19.218;2023-03-01T18:54:07;54.67;;;21.30;;
40757;SDS011;26462;47.384;19.218;2023-03-01T18:56:38;62.92;;;23.98;;
40757;SDS011;26462;47.384;19.218;2023-03-01T18:59:08;62.42;;;23.60;;
40757;SDS011;26462;47.384;19.218;2023-03-01T19:01:38;55.60;;;21.05;;
40757;SDS011;26462;47.384;19.218;2023-03-01T19:04:09;48.45;;;21.73;;
40757;SDS011;26462;47.384;19.218;2023-03-01T19:06:38;61.67;;;25.55;;
40757;SDS011;26462;47.384;19.218;2023-03-01T19:09:08;66.43;;;28.23;;
40757;SDS011;26462;47.384;19.218;2023-03-01T19:11:39;52.25;;;24.08;;
40757;SDS011;26462;47.384;19.218;2023-03-01T19:14:08;57.17;;;23.05;;
40757;SDS011;26462;47.384;19.218;2023-03-01T19:16:36;55.05;;;23.33;;
40757;SDS011;26462;47.384;19.218;2023-03-01T19:19:05;54.17;;;23.15;;
40757;SDS011;26462;47.384;19.218;2023-03-01T19:21:36;56.53;;;22.30;;
40757;SDS011;26462;47.384;19.218;2023-03-01T19:24:04;52.90;;;23.00;;
40757;SDS011;26462;47.384;19.218;2023-03-01T19:26:33;54.08;;;22.65;;
40757;SDS011;26462;47.384;19.218;2023-03-01T19:29:02;56.30;;;23.95;;
40757;SDS011;26462;47.384;19.218;2023-03-01T19:31:30;59.92;;;24.80;;
40757;SDS011;26462;47.384;19.218;2023-03-01T19:33:58;67.05;;;26.92;;
40757;SDS011;26462;47.384;19.218;2023-03-01T19:36:40;62.00;;;24.17;;
40757;SDS011;26462;47.384;19.218;2023-03-01T19:39:11;63.90;;;24.20;;
40757;SDS011;26462;47.384;19.218;2023-03-01T19:41:40;51.97;;;24.83;;
40757;SDS011;26462;47.384;19.218;2023-03-01T19:44:08;60.15;;;25.27;;
40757;SDS011;26462;47.384;19.218;2023-03-01T19:46:37;65.88;;;24.17;;
40757;SDS011;26462;47.384;19.218;2023-03-01T19:49:05;57.92;;;23.63;;
40757;SDS011;26462;47.384;19.218;2023-03-01T19:51:34;57.03;;;23.75;;
40757;SDS011;26462;47.384;19.218;2023-03-01T19:54:25;65.57;;;27.85;;
40757;SDS011;26462;47.384;19.218;2023-03-01T19:56:59;65.32;;;26.05;;
40757;SDS011;26462;47.384;19.218;2023-03-01T19:59:41;62.28;;;25.25;;
40757;SDS011;26462;47.384;19.218;2023-03-01T20:04:42;54.08;;;24.27;;
40757;SDS011;26462;47.384;19.218;2023-03-01T20:07:11;62.83;;;26.05;;
40757;SDS011;26462;47.384;19.218;2023-03-01T20:09:40;61.60;;;25.15;;
40757;SDS011;26462;47.384;19.218;2023-03-01T20:12:11;59.22;;;26.00;;
40757;SDS011;26462;47.384;19.218;2023-03-01T20:14:40;62.97;;;26.05;;
40757;SDS011;26462;47.384;19.218;2023-03-01T20:17:10;64.47;;;25.98;;
40757;SDS011;26462;47.384;19.218;2023-03-01T20:19:41;55.72;;;25.35;;
40757;SDS011;26462;47.384;19.218;2023-03-01T20:22:11;58.88;;;25.55;;
40757;SDS011;26462;47.384;19.218;2023-03-01T20:24:41;57.55;;;24.77;;
40757;SDS011;26462;47.384;19.218;2023-03-01T20:27:10;55.72;;;25.33;;
40757;SDS011;26462;47.384;19.218;2023-03-01T20:29:39;53.67;;;24.15;;
40757;SDS011;26462;47.384;19.218;2023-03-01T20:32:08;57.60;;;24.58;;
40757;SDS011;26462;47.384;19.218;2023-03-01T20:34:40;53.63;;;24.42;;
40757;SDS011;26462;47.384;19.218;2023-03-01T20:37:10;58.90;;;25.25;;
40757;SDS011;26462;47.384;19.218;2023-03-01T20:39:39;57.63;;;25.80;;
40757;SDS011;26462;47.384;19.218;2023-03-01T20:42:09;64.55;;;25.77;;
40757;SDS011;26462;47.384;19.218;2023-03-01T20:44:39;59.80;;;27.00;;
40757;SDS011;26462;47.384;19.218;2023-03-01T20:47:12;72.60;;;27.88;;
40757;SDS011;26462;47.384;19.218;2023-03-01T20:49:41;72.32;;;29.35;;
40757;SDS011;26462;47.384;19.218;2023-03-01T20:52:10;73.63;;;29.52;;
40757;SDS011;26462;47.384;19.218;2023-03-01T20:54:38;71.38;;;29.70;;
40757;SDS011;26462;47.384;19.218;2023-03-01T20:57:08;75.38;;;29.15;;
40757;SDS011;26462;47.384;19.218;2023-03-01T20:59:39;73.78;;;29.40;;
40757;SDS011;26462;47.384;19.218;2023-03-01T21:02:08;69.20;;;30.77;;
40757;SDS011;26462;47.384;19.218;2023-03-01T21:04:38;85.75;;;32.53;;
40757;SDS011;26462;47.384;19.218;2023-03-01T21:07:06;93.43;;;36.42;;
40757;SDS011;26462;47.384;19.218;2023-03-01T21:09:33;94.35;;;37.92;;
40757;SDS011;26462;47.384;19.218;2023-03-01T21:12:02;86.80;;;33.90;;
40757;SDS011;26462;47.384;19.218;2023-03-01T21:14:30;94.15;;;37.22;;
40757;SDS011;26462;47.384;19.218;2023-03-01T21:17:13;103.43;;;42.28;;
40757;SDS011;26462;47.384;19.218;2023-03-01T21:19:42;106.95;;;39.28;;
40757;SDS011;26462;47.384;19.218;2023-03-01T21:22:13;107.43;;;41.30;;
40757;SDS011;26462;47.384;19.218;2023-03-01T21:24:41;108.63;;;42.28;;
40757;SDS011;26462;47.384;19.218;2023-03-01T21:27:12;115.28;;;43.15;;
40757;SDS011;26462;47.384;19.218;2023-03-01T21:29:42;110.43;;;43.85;;
40757;SDS011;26462;47.384;19.218;2023-03-01T21:32:11;107.40;;;41.83;;
40757;SDS011;26462;47.384;19.218;2023-03-01T21:34:40;116.97;;;42.28;;
40757;SDS011;26462;47.384;19.218;2023-03-01T21:37:09;119.00;;;43.15;;
40757;SDS011;26462;47.384;19.218;2023-03-01T21:39:36;115.57;;;42.03;;
40757;SDS011;26462;47.384;19.218;2023-03-01T21:42:06;108.57;;;42.22;;
40757;SDS011;26462;47.384;19.218;2023-03-01T21:44:33;125.00;;;47.00;;
40757;SDS011;26462;47.384;19.218;2023-03-01T21:47:02;119.40;;;44.78;;
40757;SDS011;26462;47.384;19.218;2023-03-01T21:49:36;129.38;;;47.60;;
40757;SDS011;26462;47.384;19.218;2023-03-01T21:52:05;137.43;;;48.00;;
40757;SDS011;26462;47.384;19.218;2023-03-01T21:54:32;136.13;;;50.75;;
40757;SDS011;26462;47.384;19.218;2023-03-01T21:57:00;141.85;;;50.15;;
40757;SDS011;26462;47.384;19.218;2023-03-01T21:59:28;139.48;;;50.28;;
40757;SDS011;26462;47.384;19.218;2023-03-01T22:01:55;138.07;;;50.20;;
40757;SDS011;26462;47.384;19.218;2023-03-01T22:04:23;161.18;;;54.03;;
40757;SDS011;26462;47.384;19.218;2023-03-01T22:06:56;183.27;;;60.85;;
40757;SDS011;26462;47.384;19.218;2023-03-01T22:09:23;200.32;;;61.78;;
40757;SDS011;26462;47.384;19.218;2023-03-01T22:11:52;177.25;;;55.83;;
40757;SDS011;26462;47.384;19.218;2023-03-01T22:14:28;143.55;;;49.95;;
40757;SDS011;26462;47.384;19.218;2023-03-01T22:16:58;125.05;;;45.17;;
40757;SDS011;26462;47.384;19.218;2023-03-01T22:19:26;102.32;;;36.90;;
40757;SDS011;26462;47.384;19.218;2023-03-01T22:21:56;87.20;;;31.17;;
40757;SDS011;26462;47.384;19.218;2023-03-01T22:24:24;79.25;;;28.10;;
40757;SDS011;26462;47.384;19.218;2023-03-01T22:26:54;63.00;;;25.80;;
40757;SDS011;26462;47.384;19.218;2023-03-01T22:29:25;62.72;;;22.38;;
40757;SDS011;26462;47.384;19.218;2023-03-01T22:31:55;54.78;;;21.65;;
40757;SDS011;26462;47.384;19.218;2023-03-01T22:34:25;49.67;;;21.10;;
40757;SDS011;26462;47.384;19.218;2023-03-01T22:36:54;58.58;;;20.30;;
40757;SDS011;26462;47.384;19.218;2023-03-01T22:39:24;51.25;;;20.02;;
40757;SDS011;26462;47.384;19.218;2023-03-01T22:41:52;46.67;;;20.00;;
40757;SDS011;26462;47.384;19.218;2023-03-01T22:44:21;46.50;;;16.95;;
40757;SDS011;26462;47.384;19.218;2023-03-01T22:46:49;40.42;;;16.65;;
40757;SDS011;26462;47.384;19.218;2023-03-01T22:49:18;45.53;;;17.02;;
40757;SDS011;26462;47.384;19.218;2023-03-01T22:51:48;31.55;;;13.18;;
40757;SDS011;26462;47.384;19.218;2023-03-01T22:54:16;36.50;;;15.18;;
40757;SDS011;26462;47.384;19.218;2023-03-01T22:56:47;33.95;;;13.55;;
40757;SDS011;26462;47.384;19.218;2023-03-01T22:59:16;35.67;;;13.77;;
40757;SDS011;26462;47.384;19.218;2023-03-01T23:01:51;28.67;;;12.95;;
40757;SDS011;26462;47.384;19.218;2023-03-01T23:04:20;30.92;;;12.27;;
40757;SDS011;26462;47.384;19.218;2023-03-01T23:06:49;27.27;;;11.65;;
40757;SDS011;26462;47.384;19.218;2023-03-01T23:09:21;32.22;;;12.00;;
40757;SDS011;26462;47.384;19.218;2023-03-01T23:11:56;30.27;;;11.63;;
40757;SDS011;26462;47.384;19.218;2023-03-01T23:14:25;30.52;;;11.55;;
40757;SDS011;26462;47.384;19.218;2023-03-01T23:16:56;31.23;;;11.57;;
40757;SDS011;26462;47.384;19.218;2023-03-01T23:19:26;29.50;;;11.55;;
40757;SDS011;26462;47.384;19.218;2023-03-01T23:21:57;27.00;;;11.77;;
40757;SDS011;26462;47.384;19.218;2023-03-01T23:24:26;30.77;;;11.80;;
40757;SDS011;26462;47.384;19.218;2023-03-01T23:26:58;27.02;;;10.75;;
40757;SDS011;26462;47.384;19.218;2023-03-01T23:29:26;31.65;;;11.35;;
40757;SDS011;26462;47.384;19.218;2023-03-01T23:31:54;33.83;;;12.13;;
40757;SDS011;26462;47.384;19.218;2023-03-01T23:34:23;30.45;;;11.23;;
40757;SDS011;26462;47.384;19.218;2023-03-01T23:36:52;28.92;;;11.98;;
40757;SDS011;26462;47.384;19.218;2023-03-01T23:39:22;25.13;;;10.93;;
40757;SDS011;26462;47.384;19.218;2023-03-01T23:41:53;29.58;;;10.77;;
40757;SDS011;26462;47.384;19.218;2023-03-01T23:44:21;29.02;;;11.35;;
40757;SDS011;26462;47.384;19.218;2023-03-01T23:46:49;29.35;;;10.50;;
40757;SDS011;26462;47.384;19.218;2023-03-01T23:49:19;28.60;;;10.30;;
40757;SDS011;26462;47.384;19.218;2023-03-01T23:52:10;23.17;;;9.18;;
40757;SDS011;26462;47.384;19.218;2023-03-01T23:54:40;26.37;;;10.33;;
40757;SDS011;26462;47.384;19.218;2023-03-01T23:57:07;23.20;;;9.90;;
40757;SDS011;26462;47.384;19.218;2023-03-01T23:59:36;23.65;;;9.75;;
